Time;durP1;ratioP1;P1;durP2;ratioP2;P2;SDS_P1;SDS_P2;PMS_P1;PMS_P2;Temp;Humidity;BMP_temperature;BMP_pressure;BME280_temperature;BME280_humidity;BME280_pressure;Samples;Min_cycle;Max_cycle;Signal;HPM_P1;HPM_P2
2022/08/17 00:01:31;;;;;;;8.38;5.10;;;;;;;18.94;73.00;99692.59;4988474;28;20054;-36
2022/08/17 00:04:19;;;;;;;7.88;5.30;;;;;;;18.89;72.97;99695.44;4984181;28;20178;-37
2022/08/17 00:06:46;;;;;;;7.28;4.40;;;;;;;18.90;73.16;99686.63;4993126;28;20132;-34
2022/08/17 00:09:16;;;;;;;6.15;4.10;;;;;;;18.85;72.99;99678.13;4991153;28;20053;-34
2022/08/17 00:11:47;;;;;;;6.63;3.88;;;;;;;18.84;72.67;99687.75;4987768;28;20512;-39
2022/08/17 00:14:34;;;;;;;6.07;4.07;;;;;;;18.81;73.34;99681.78;4988922;28;20100;-35
2022/08/17 00:17:03;;;;;;;5.85;3.80;;;;;;;18.82;73.02;99684.34;4991455;28;20045;-35
2022/08/17 00:19:31;;;;;;;7.30;3.58;;;;;;;18.81;73.21;99681.78;4991387;28;20057;-42
2022/08/17 00:22:01;;;;;;;5.57;3.22;;;;;;;18.79;73.39;99683.63;5001820;28;20133;-44
2022/08/17 00:24:48;;;;;;;6.18;3.50;;;;;;;18.80;73.14;99683.56;4989959;28;20096;-39
2022/08/17 00:27:15;;;;;;;5.93;3.55;;;;;;;18.79;73.30;99686.25;4989450;28;20086;-38
2022/08/17 00:29:44;;;;;;;4.18;3.30;;;;;;;18.78;73.46;99688.00;4993374;28;20046;-41
2022/08/17 00:32:13;;;;;;;3.25;2.50;;;;;;;18.76;73.69;99684.59;4995430;28;20065;-39
2022/08/17 00:35:04;;;;;;;2.70;2.00;;;;;;;18.71;73.73;99678.72;4988127;28;20102;-37
2022/08/17 00:37:30;;;;;;;3.05;1.83;;;;;;;18.72;74.00;99689.13;4990091;28;20053;-37
2022/08/17 00:39:57;;;;;;;2.80;2.17;;;;;;;18.69;73.47;99688.41;4986333;28;20069;-37
2022/08/17 00:42:24;;;;;;;4.25;1.85;;;;;;;18.68;73.95;99671.78;5000471;28;20058;-39
2022/08/17 00:44:57;;;;;;;3.97;2.03;;;;;;;18.69;74.01;99684.03;4988238;28;20073;-38
2022/08/17 00:47:23;;;;;;;3.47;2.10;;;;;;;18.67;73.59;99672.72;4994326;28;20072;-39
2022/08/17 00:49:50;;;;;;;2.72;1.83;;;;;;;18.64;73.54;99670.22;4988450;28;20062;-36
2022/08/17 00:52:21;;;;;;;2.83;1.40;;;;;;;18.63;73.46;99684.28;4994393;28;20405;-38
2022/08/17 00:54:52;;;;;;;3.40;2.05;;;;;;;18.62;73.54;99687.81;4987408;28;20093;-41
2022/08/17 00:57:25;;;;;;;3.35;2.30;;;;;;;18.59;73.89;99693.19;4989819;28;20050;-41
2022/08/17 00:59:56;;;;;;;2.83;1.98;;;;;;;18.61;73.72;99696.59;4987730;28;20050;-35
2022/08/17 01:02:38;;;;;;;2.67;1.90;;;;;;;18.59;72.93;99703.69;4984976;28;20137;-37
2022/08/17 01:05:13;;;;;;;3.17;2.33;;;;;;;18.59;73.25;99703.69;4994060;28;20045;-38
2022/08/17 01:07:41;;;;;;;3.30;1.75;;;;;;;18.57;73.09;99711.59;4989022;28;20104;-35
2022/08/17 01:10:11;;;;;;;2.70;2.30;;;;;;;18.56;73.58;99709.03;4988524;28;20736;-38
2022/08/17 01:13:01;;;;;;;3.10;2.13;;;;;;;18.56;73.42;99709.03;4996761;28;20072;-38
2022/08/17 01:15:30;;;;;;;4.00;2.80;;;;;;;18.56;73.40;99709.03;4986286;28;20042;-42
2022/08/17 01:17:56;;;;;;;2.55;2.28;;;;;;;18.56;73.18;99709.03;4969290;28;20058;-38
2022/08/17 01:20:23;;;;;;;3.60;1.92;;;;;;;18.55;73.63;99707.34;4979973;28;20050;-36
2022/08/17 01:22:50;;;;;;;2.75;1.58;;;;;;;18.56;73.39;99698.56;4990057;28;20053;-39
2022/08/17 01:25:19;;;;;;;1.90;1.48;;;;;;;18.57;72.99;99708.13;4989510;28;20054;-38
2022/08/17 01:27:46;;;;;;;1.70;1.20;;;;;;;18.56;73.75;99694.16;4990782;28;20054;-38
2022/08/17 01:30:13;;;;;;;1.85;1.48;;;;;;;18.55;73.50;99697.72;4991129;28;20069;-36
2022/08/17 01:33:00;;;;;;;2.03;1.30;;;;;;;18.53;72.93;99703.91;4988607;28;20069;-38
2022/08/17 01:35:26;;;;;;;1.42;1.08;;;;;;;18.52;72.86;99702.22;4990526;28;20054;-40
2022/08/17 01:37:53;;;;;;;2.42;1.65;;;;;;;18.50;73.33;99700.53;4987617;28;20057;-39
2022/08/17 01:40:39;;;;;;;1.40;1.30;;;;;;;18.43;74.15;99692.97;4991664;28;20054;-40
2022/08/17 01:43:13;;;;;;;2.50;1.23;;;;;;;18.46;73.05;99698.94;5006070;28;20054;-36
2022/08/17 01:45:44;;;;;;;2.40;2.20;;;;;;;18.47;73.55;99694.53;4987786;28;20470;-40
2022/08/17 01:48:11;;;;;;;1.77;1.52;;;;;;;18.47;73.72;99700.66;4993392;28;20741;-38
2022/08/17 01:50:42;;;;;;;1.73;1.63;;;;;;;18.47;73.06;99700.66;4990377;28;20049;-38
2022/08/17 01:53:14;;;;;;;1.98;1.75;;;;;;;18.48;73.36;99698.88;4988416;28;20050;-37
2022/08/17 01:55:46;;;;;;;1.92;1.35;;;;;;;18.46;72.97;99698.09;4993362;28;20057;-38
2022/08/17 01:58:12;;;;;;;1.38;1.27;;;;;;;18.43;72.99;99700.81;4989610;28;20050;-40
2022/08/17 02:00:41;;;;;;;1.73;1.52;;;;;;;18.41;72.87;99698.25;4999538;28;20141;-37
2022/08/17 02:03:27;;;;;;;4.18;1.98;;;;;;;18.41;73.04;99705.28;4989073;28;20060;-35
2022/08/17 02:05:54;;;;;;;1.60;1.35;;;;;;;18.40;73.64;99699.19;4989352;28;20054;-39
2022/08/17 02:08:21;;;;;;;2.70;1.83;;;;;;;18.40;72.96;99707.06;4992032;28;21041;-36
2022/08/17 02:11:08;;;;;;;4.35;2.22;;;;;;;18.40;73.08;99709.69;4990851;28;20157;-34
2022/08/17 02:13:38;;;;;;;1.60;1.50;;;;;;;18.39;73.36;99709.72;4967655;28;20055;-40
2022/08/17 02:16:04;;;;;;;2.38;2.17;;;;;;;18.37;72.76;99709.78;4987224;28;20097;-39
2022/08/17 02:18:31;;;;;;;2.08;1.95;;;;;;;18.35;73.04;99712.50;4991512;28;20057;-36
2022/08/17 02:20:58;;;;;;;4.53;1.38;;;;;;;18.33;73.04;99709.06;4991133;28;20116;-40
2022/08/17 02:23:29;;;;;;;2.05;1.65;;;;;;;18.31;73.57;99704.81;4993270;28;20046;-36
2022/08/17 02:25:58;;;;;;;1.67;1.58;;;;;;;18.28;73.45;99715.41;4981798;28;20058;-39
2022/08/17 02:28:25;;;;;;;2.08;1.70;;;;;;;18.29;73.48;99717.13;4987869;28;20049;-34
2022/08/17 02:30:52;;;;;;;2.58;1.67;;;;;;;18.27;73.12;99718.97;4987276;28;20049;-37
2022/08/17 02:33:30;;;;;;;2.15;1.75;;;;;;;18.26;73.36;99720.72;4988766;28;20124;-40
2022/08/17 02:36:10;;;;;;;1.98;1.63;;;;;;;18.23;73.41;99719.09;4987727;28;20041;-39
2022/08/17 02:38:37;;;;;;;1.13;0.60;;;;;;;18.16;74.00;99715.00;4995598;28;20393;-37
2022/08/17 02:41:04;;;;;;;3.10;1.27;;;;;;;18.13;73.88;99715.09;4990450;28;20038;-37
2022/08/17 02:43:31;;;;;;;1.50;1.40;;;;;;;18.10;73.92;99713.47;4991655;28;20042;-36
2022/08/17 02:45:58;;;;;;;1.60;1.48;;;;;;;18.07;73.35;99717.97;4987252;28;20054;-35
2022/08/17 02:48:25;;;;;;;2.25;1.92;;;;;;;18.06;73.61;99716.22;4990873;28;20053;-36
2022/08/17 02:50:58;;;;;;;3.30;1.10;;;;;;;18.06;73.78;99721.47;4990003;28;20487;-35
2022/08/17 02:53:25;;;;;;;2.15;1.48;;;;;;;18.03;73.76;99713.75;4991038;28;20191;-37
2022/08/17 02:55:52;;;;;;;2.78;1.33;;;;;;;17.97;74.02;99718.31;4990650;28;20564;-35
2022/08/17 02:58:19;;;;;;;1.50;1.40;;;;;;;17.95;74.30;99721.91;4989338;28;20109;-41
2022/08/17 03:01:04;;;;;;;1.52;0.57;;;;;;;17.89;73.99;99725.59;4988023;28;20344;-36
2022/08/17 03:03:31;;;;;;;1.27;1.17;;;;;;;17.86;73.86;99736.19;4997708;28;20046;-36
2022/08/17 03:05:57;;;;;;;2.60;1.17;;;;;;;17.87;73.82;99730.06;4984295;28;20053;-37
2022/08/17 03:08:24;;;;;;;2.05;1.95;;;;;;;17.83;73.83;99726.69;4988228;28;20229;-36
2022/08/17 03:10:51;;;;;;;2.90;1.00;;;;;;;17.82;74.28;99726.75;4990468;28;20065;-39
2022/08/17 03:13:18;;;;;;;1.17;1.08;;;;;;;17.81;73.65;99732.91;4989767;28;20057;-37
2022/08/17 03:15:47;;;;;;;2.38;1.00;;;;;;;17.79;73.92;99739.97;4988692;28;20137;-35
2022/08/17 03:18:18;;;;;;;1.05;1.05;;;;;;;17.76;74.22;99740.94;4994231;28;20050;-35
2022/08/17 03:20:54;;;;;;;1.10;1.00;;;;;;;17.72;73.65;99750.69;4992391;28;20088;-39
2022/08/17 03:23:22;;;;;;;2.03;0.95;;;;;;;17.72;73.70;99748.06;4993995;28;20052;-38
2022/08/17 03:25:51;;;;;;;;;;;;;;;17.54;74.41;99746.13;4993283;28;20513;-37
2022/08/17 03:28:19;;;;;;;1.92;1.83;;;;;;;17.67;74.06;99752.59;4991081;28;20020;-40
2022/08/17 03:30:45;;;;;;;1.30;1.20;;;;;;;17.64;73.90;99754.50;4993790;28;20038;-39
2022/08/17 03:33:12;;;;;;;1.25;1.15;;;;;;;17.59;74.79;99749.41;4997134;28;20042;-35
2022/08/17 03:35:39;;;;;;;1.85;1.70;;;;;;;17.60;74.63;99751.16;4995240;28;20100;-37
2022/08/17 03:38:08;;;;;;;4.50;1.63;;;;;;;17.60;74.10;99751.16;4985962;28;20053;-35
2022/08/17 03:40:36;;;;;;;1.30;1.20;;;;;;;17.59;74.44;99757.28;4991186;28;20062;-35
2022/08/17 03:43:23;;;;;;;1.90;1.73;;;;;;;17.56;74.65;99760.03;4985843;28;20137;-38
2022/08/17 03:57:17;;;;;;;2.25;1.95;;;;;;;17.57;74.77;99767.81;4994549;28;20676;-38
2022/08/17 03:59:46;;;;;;;0.93;0.75;;;;;;;17.55;75.39;99768.78;4983087;28;20397;-38
2022/08/17 04:02:21;;;;;;;2.42;1.80;;;;;;;17.53;74.97;99775.84;4995530;28;20077;-38
2022/08/17 04:04:49;;;;;;;1.45;1.30;;;;;;;17.52;75.28;99771.50;4988780;28;20069;-40
2022/08/17 04:07:19;;;;;;;2.15;1.50;;;;;;;17.49;75.10;99772.47;4999177;28;20069;-35
2022/08/17 04:09:46;;;;;;;1.95;1.70;;;;;;;17.53;74.87;99773.22;4991273;28;20054;-38
2022/08/17 04:12:16;;;;;;;1.33;1.23;;;;;;;17.49;75.60;99776.88;4992467;28;20477;-35
2022/08/17 04:14:43;;;;;;;1.73;1.40;;;;;;;17.51;75.41;99773.28;4986580;28;20100;-40
2022/08/17 04:17:22;;;;;;;1.83;1.40;;;;;;;17.47;75.27;99772.50;4991759;28;20046;-42
2022/08/17 04:19:49;;;;;;;2.05;1.70;;;;;;;17.50;75.40;99776.81;4993683;28;20056;-35
2022/08/17 04:22:17;;;;;;;2.78;1.73;;;;;;;17.52;75.43;99781.97;4991341;28;20454;-35
2022/08/17 04:24:56;;;;;;;2.53;1.80;;;;;;;17.52;75.16;99779.34;4988013;28;20058;-35
2022/08/17 04:27:24;;;;;;;2.10;1.90;;;;;;;17.45;75.23;99776.97;4996912;28;20064;-39
2022/08/17 04:29:50;;;;;;;1.75;1.52;;;;;;;17.52;74.90;99774.13;4990761;28;20050;-38
2022/08/17 04:32:21;;;;;;;2.55;1.40;;;;;;;17.46;75.50;99776.06;4985149;28;20133;-38
2022/08/17 04:35:08;;;;;;;2.03;1.83;;;;;;;17.47;74.96;99774.31;4994258;28;20041;-34
2022/08/17 04:37:35;;;;;;;4.07;1.60;;;;;;;17.46;75.31;99773.44;4990716;28;20440;-36
2022/08/17 04:43:13;;;;;;;2.70;1.70;;;;;;;17.39;75.08;99785.03;4988139;28;20050;-35
2022/08/17 04:45:49;;;;;;;1.98;1.45;;;;;;;17.45;74.51;99776.97;4991125;28;20046;-35
2022/08/17 04:48:25;;;;;;;2.85;1.77;;;;;;;17.42;75.65;99779.69;4989606;28;20145;-36
2022/08/17 04:51:02;;;;;;;6.00;1.33;;;;;;;17.43;75.46;99781.38;4989136;28;20402;-39
2022/08/17 04:53:29;;;;;;;2.55;1.40;;;;;;;17.41;74.84;99785.84;4990176;28;20692;-36
2022/08/17 04:55:57;;;;;;;2.78;1.55;;;;;;;17.37;75.87;99776.41;4989234;28;20559;-37
2022/08/17 04:58:25;;;;;;;2.53;1.85;;;;;;;17.39;75.40;99787.66;4986541;28;20054;-35
2022/08/17 05:00:51;;;;;;;3.20;1.33;;;;;;;17.38;75.35;99783.31;4990479;28;20065;-35
2022/08/17 05:03:18;;;;;;;2.13;1.92;;;;;;;17.37;74.65;99786.00;4986092;28;20092;-36
2022/08/17 05:05:48;;;;;;;2.90;1.15;;;;;;;17.39;74.48;99792.03;4988912;28;20425;-37
2022/08/17 05:08:17;;;;;;;2.65;1.45;;;;;;;17.33;75.42;99787.88;4994834;28;20105;-38
2022/08/17 05:10:45;;;;;;;2.28;1.73;;;;;;;17.33;74.80;99796.56;4969818;28;20050;-39
2022/08/17 05:13:17;;;;;;;1.45;1.20;;;;;;;17.32;75.36;99794.88;4984151;28;20061;-38
2022/08/17 05:15:45;;;;;;;4.93;1.70;;;;;;;17.33;75.01;99806.22;4977980;28;20145;-35
2022/08/17 05:18:15;;;;;;;3.00;1.75;;;;;;;17.36;74.82;99807.84;4976706;28;20503;-37
2022/08/17 05:20:42;;;;;;;1.60;0.85;;;;;;;17.35;74.75;99809.59;4981572;28;20335;-37
2022/08/17 05:23:13;;;;;;;3.78;1.30;;;;;;;17.36;74.98;99810.47;4988342;28;20049;-37
2022/08/17 05:25:43;;;;;;;1.77;1.23;;;;;;;17.34;74.67;99813.13;4991070;28;20058;-37
2022/08/17 05:28:14;;;;;;;1.25;1.15;;;;;;;17.34;75.02;99814.00;4995205;28;20046;-36
2022/08/17 05:30:42;;;;;;;3.30;1.58;;;;;;;17.30;75.23;99807.13;4990608;28;20042;-38
2022/08/17 05:33:13;;;;;;;3.28;1.58;;;;;;;17.32;74.69;99812.31;4994062;28;20046;-39
2022/08/17 05:35:43;;;;;;;1.67;0.65;;;;;;;17.32;74.77;99810.56;4988678;28;20464;-39
2022/08/17 05:38:10;;;;;;;3.35;1.60;;;;;;;17.30;75.61;99814.16;4992016;28;20042;-34
2022/08/17 05:40:37;;;;;;;2.60;2.22;;;;;;;17.29;75.17;99820.31;4990824;28;20048;-38
2022/08/17 05:45:45;;;;;;;2.80;0.40;;;;;;;17.26;75.44;99820.41;5024832;27;20441;-37
2022/08/17 05:48:23;;;;;;;1.70;0.50;;;;;;;17.25;75.22;99813.47;5018501;28;20057;-36
2022/08/17 05:53:52;;;;;;;0.93;0.57;;;;;;;17.21;75.01;99824.03;5032649;28;20402;-38
2022/08/17 05:56:47;;;;;;;1.15;0.40;;;;;;;17.20;74.76;99819.69;5008683;28;20382;-38
2022/08/17 06:02:25;;;;;;;2.30;2.10;;;;;;;17.17;75.46;99827.66;5042706;28;20390;-38
2022/08/17 06:16:03;;;;;;;3.40;0.88;;;;;;;17.30;74.55;99822.00;5055767;27;20397;-38
2022/08/17 06:21:34;;;;;;;2.05;1.13;;;;;;;17.28;75.23;99822.06;5011881;27;20404;-41
2022/08/17 06:24:13;;;;;;;1.83;1.23;;;;;;;17.27;74.85;99827.34;5013893;28;20042;-39
2022/08/17 06:26:44;;;;;;;2.40;2.20;;;;;;;17.25;75.11;99837.03;5020863;28;20565;-39
2022/08/17 06:31:47;;;;;;;3.30;1.05;;;;;;;17.64;74.46;99847.03;5052441;28;20391;-40
2022/08/17 06:34:14;;;;;;;2.40;0.75;;;;;;;17.44;74.72;99839.84;5023447;28;20709;-39
2022/08/17 06:44:49;;;;;;;2.05;0.47;;;;;;;17.31;75.56;99870.81;5039860;28;20744;-39
2022/08/17 06:47:30;;;;;;;4.25;2.88;;;;;;;17.30;75.21;99869.13;5009666;28;20053;-44
2022/08/17 06:50:20;;;;;;;2.83;2.08;;;;;;;17.31;75.19;99882.16;5004288;28;20072;-39
2022/08/17 06:53:27;;;;;;;2.15;1.70;;;;;;;17.26;75.34;99878.81;5011845;28;20045;-39
2022/08/17 06:56:01;;;;;;;2.05;1.80;;;;;;;17.34;74.98;99894.28;5017627;28;20096;-38
2022/08/17 06:58:30;;;;;;;4.10;1.85;;;;;;;17.38;75.07;99881.94;5009195;28;20065;-41
2022/08/17 07:01:04;;;;;;;3.78;2.38;;;;;;;17.39;75.36;99883.66;5012607;28;20393;-40
2022/08/17 07:03:38;;;;;;;3.47;2.72;;;;;;;17.44;74.81;99886.97;5011996;28;20049;-44
2022/08/17 07:06:13;;;;;;;5.10;1.98;;;;;;;17.41;74.67;99887.94;4994594;28;20370;-41
2022/08/17 07:08:52;;;;;;;4.35;2.33;;;;;;;17.38;74.92;99898.50;4980428;28;20051;-39
2022/08/17 07:11:28;;;;;;;2.92;2.25;;;;;;;17.37;74.88;99899.44;4984796;28;20579;-41
2022/08/17 07:14:36;;;;;;;4.57;2.60;;;;;;;17.31;75.18;99907.47;4984315;28;20047;-41
2022/08/17 07:17:09;;;;;;;3.60;2.20;;;;;;;17.34;75.36;99905.63;4984921;28;20070;-41
2022/08/17 07:19:44;;;;;;;4.30;2.22;;;;;;;17.35;74.89;99914.31;4976698;28;20050;-37
2022/08/17 07:24:58;;;;;;;3.88;0.82;;;;;;;17.36;74.86;99923.03;5058883;28;20378;-36
2022/08/17 07:30:25;;;;;;;3.33;1.00;;;;;;;17.33;75.29;99931.84;5018346;28;20407;-37
2022/08/17 07:32:59;;;;;;;1.98;1.08;;;;;;;17.38;75.31;99929.06;5003692;28;21065;-35
2022/08/17 07:38:18;;;;;;;3.92;0.90;;;;;;;17.41;74.99;99932.44;5107269;27;20955;-37
2022/08/17 07:43:43;;;;;;;2.22;0.77;;;;;;;17.47;74.91;99932.22;5061423;27;20404;-39
2022/08/17 07:48:51;;;;;;;5.75;1.77;;;;;;;17.55;74.42;99931.97;5018177;27;20398;-37
2022/08/17 07:51:24;;;;;;;3.90;2.40;;;;;;;17.58;74.15;99936.25;5001862;28;20049;-35
2022/08/17 07:53:54;;;;;;;3.70;2.15;;;;;;;17.59;74.45;99946.69;4989005;28;20054;-35
2022/08/17 07:56:43;;;;;;;3.78;2.00;;;;;;;17.59;74.61;99948.44;4989733;28;20058;-38
2022/08/17 08:04:35;;;;;;;2.35;0.75;;;;;;;17.59;73.78;99965.00;5060142;28;20402;-37
2022/08/17 08:07:30;;;;;;;4.03;1.33;;;;;;;17.54;74.22;99960.84;5018143;28;20068;-36
2022/08/17 08:12:41;;;;;;;4.13;1.83;;;;;;;17.51;74.54;99971.41;5026545;27;20405;-38
2022/08/17 08:17:53;;;;;;;4.05;1.02;;;;;;;17.50;74.92;99982.78;5038285;27;20905;-40
2022/08/17 08:20:32;;;;;;;4.63;1.02;;;;;;;17.47;74.93;99988.97;5005341;28;20473;-36
2022/08/17 08:23:56;;;;;;;4.18;1.02;;;;;;;17.41;74.53;100000.50;4998381;28;20188;-39
2022/08/17 08:37:30;;;;;;;3.38;2.30;;;;;;;17.39;74.40;100004.09;5040551;28;20410;-37
2022/08/17 08:53:57;;;;;;;2.65;0.70;;;;;;;17.47;74.07;100018.63;5022284;28;20408;-37
2022/08/17 09:02:16;;;;;;;2.25;0.63;;;;;;;17.42;74.75;100041.47;5050793;28;20380;-36
2022/08/17 09:05:15;;;;;;;3.45;0.60;;;;;;;17.45;74.48;100035.28;4999086;28;20046;-35
2022/08/17 09:08:22;;;;;;;3.53;0.88;;;;;;;17.42;74.61;100028.41;5005978;28;20049;-37
2022/08/17 09:27:07;;;;;;;2.42;0.68;;;;;;;17.55;74.73;100041.09;5018210;28;20937;-34
2022/08/17 09:29:40;;;;;;;4.63;0.40;;;;;;;17.59;74.00;100034.84;5003819;28;20072;-37
2022/08/17 09:32:21;;;;;;;5.05;0.50;;;;;;;17.59;73.99;100037.47;5001516;28;20049;-35
2022/08/17 09:34:53;;;;;;;5.43;0.95;;;;;;;17.64;73.95;100035.56;5000544;28;20486;-38
2022/08/17 09:38:00;;;;;;;2.00;0.55;;;;;;;17.61;74.24;100046.16;5001642;28;20053;-39
2022/08/17 09:40:47;;;;;;;0.80;0.30;;;;;;;17.58;74.39;100046.22;5005926;28;20050;-35
2022/08/17 09:45:56;;;;;;;3.55;1.48;;;;;;;17.90;73.35;100035.63;5045223;28;20908;-38
2022/08/17 09:48:30;;;;;;;5.07;1.95;;;;;;;17.64;74.23;100035.56;5059001;28;20051;-34
2022/08/17 09:51:38;;;;;;;3.30;1.17;;;;;;;17.53;73.96;100048.16;5072507;28;20102;-37
2022/08/17 10:26:11;;;;;;;1.90;0.60;;;;;;;17.64;73.52;100047.81;5083023;27;20923;-35
2022/08/17 10:55:18;;;;;;;2.75;0.90;;;;;;;18.06;72.60;100028.06;5061784;28;20420;-36
2022/08/17 10:57:48;;;;;;;4.55;0.90;;;;;;;18.05;72.75;100034.22;5000715;28;20097;-36
2022/08/17 11:26:57;;;;;;;2.40;0.95;;;;;;;18.09;72.54;100035.88;5012324;28;20884;-38
2022/08/17 11:29:32;;;;;;;3.22;1.30;;;;;;;18.07;71.95;100037.66;5000140;28;20049;-38
2022/08/17 11:32:12;;;;;;;2.55;0.77;;;;;;;18.07;71.87;100035.06;5003179;28;20053;-36
2022/08/17 11:34:42;;;;;;;2.17;1.20;;;;;;;18.12;72.25;100041.00;5002791;28;20046;-36
2022/08/17 11:37:22;;;;;;;3.38;1.00;;;;;;;18.15;72.06;100045.28;4998450;28;20053;-36
2022/08/17 11:45:55;;;;;;;2.70;0.98;;;;;;;18.16;71.41;100055.72;5050543;27;20401;-39
2022/08/17 12:09:23;;;;;;;4.05;1.23;;;;;;;18.17;72.49;100080.19;5047349;27;20387;-35
2022/08/17 12:12:01;;;;;;;3.88;1.23;;;;;;;18.17;71.76;100070.53;5016791;28;20046;-37
2022/08/17 12:14:44;;;;;;;;;;;;;;;18.02;73.32;100071.00;5028004;28;20054;-36
2022/08/17 12:17:33;;;;;;;4.13;0.95;;;;;;;18.11;72.45;100074.22;5022965;28;19925;-36
2022/08/17 12:20:20;;;;;;;1.85;0.63;;;;;;;18.13;72.61;100068.09;5054111;28;20056;-37
2022/08/17 12:22:59;;;;;;;4.13;1.02;;;;;;;18.16;71.86;100068.81;5027035;28;20083;-38
2022/08/17 12:28:23;;;;;;;5.72;2.47;;;;;;;18.11;73.03;100076.00;5033377;28;20900;-36
2022/08/17 12:30:51;;;;;;;4.43;2.63;;;;;;;18.19;72.50;100076.59;4994652;28;20057;-37
2022/08/17 12:33:22;;;;;;;5.28;2.00;;;;;;;18.22;72.55;100079.13;4994080;28;20050;-37
2022/08/17 12:35:59;;;;;;;2.38;1.65;;;;;;;18.23;72.08;100080.81;4990077;28;20046;-38
2022/08/17 12:38:26;;;;;;;4.28;0.90;;;;;;;18.29;72.56;100078.88;4997379;28;20485;-36
2022/08/17 12:41:24;;;;;;;2.22;1.58;;;;;;;18.31;72.33;100082.31;4996136;28;20050;-36
2022/08/17 12:43:57;;;;;;;2.72;1.85;;;;;;;18.30;71.44;100085.88;4988118;28;20058;-39
2022/08/17 12:46:24;;;;;;;3.15;0.98;;;;;;;18.31;71.75;100083.16;4988173;28;20685;-39
2022/08/17 12:48:51;;;;;;;5.25;2.28;;;;;;;18.23;71.71;100086.06;4989157;28;20054;-38
2022/08/17 12:51:26;;;;;;;6.28;2.20;;;;;;;18.24;72.19;100079.06;4992017;28;20128;-38
2022/08/17 12:53:54;;;;;;;2.50;2.22;;;;;;;18.26;72.09;100089.47;4990970;28;20077;-36
2022/08/17 12:56:21;;;;;;;2.75;2.03;;;;;;;18.23;71.41;100090.44;4991119;28;20042;-38
2022/08/17 12:58:53;;;;;;;3.10;2.38;;;;;;;18.22;71.63;100089.59;4991848;28;20045;-37
2022/08/17 13:01:23;;;;;;;2.15;1.95;;;;;;;18.21;71.57;100097.50;4991806;28;20105;-37
2022/08/17 13:03:58;;;;;;;2.75;1.77;;;;;;;18.23;71.76;100096.53;4996244;28;20584;-37
2022/08/17 13:06:30;;;;;;;5.60;1.98;;;;;;;18.29;71.18;100089.38;4993965;28;20042;-39
2022/08/17 13:09:11;;;;;;;4.28;2.08;;;;;;;18.28;71.09;100098.16;4995095;28;20062;-38
2022/08/17 13:12:00;;;;;;;3.47;1.90;;;;;;;18.29;70.90;100097.25;4994213;28;20077;-38
2022/08/17 13:14:28;;;;;;;2.65;1.65;;;;;;;18.31;71.17;100098.88;5002314;28;20057;-39
2022/08/17 13:17:00;;;;;;;7.38;2.28;;;;;;;18.33;70.49;100104.94;4996281;28;20133;-38
2022/08/17 13:19:30;;;;;;;3.20;1.92;;;;;;;18.37;70.81;100103.06;4973170;28;20091;-38
2022/08/17 13:22:11;;;;;;;4.75;2.25;;;;;;;18.35;71.34;100097.03;4989972;28;20066;-39
2022/08/17 13:24:51;;;;;;;6.13;1.83;;;;;;;18.33;70.24;100106.72;4983871;28;20054;-37
2022/08/17 13:27:21;;;;;;;2.60;2.08;;;;;;;18.35;70.66;100104.91;4989415;28;20156;-37
2022/08/17 13:29:52;;;;;;;3.80;2.03;;;;;;;18.36;70.17;100102.22;4985779;28;20053;-37
2022/08/17 13:35:01;;;;;;;5.70;0.98;;;;;;;18.43;70.13;100097.63;5063073;27;20406;-39
2022/08/17 13:38:03;;;;;;;2.80;0.93;;;;;;;18.44;70.47;100099.31;5060309;28;20143;-37
2022/08/17 13:40:37;;;;;;;5.97;0.98;;;;;;;18.50;70.06;100095.63;5060330;28;20078;-37
2022/08/17 13:43:04;;;;;;;3.00;1.13;;;;;;;18.53;69.88;100097.28;5061089;28;20499;-37
2022/08/17 13:45:42;;;;;;;4.15;1.00;;;;;;;18.55;70.17;100092.84;5064648;28;20063;-38
2022/08/17 13:53:49;;;;;;;5.85;0.68;;;;;;;18.65;70.04;100093.38;5085714;27;20415;-38
2022/08/17 13:56:37;;;;;;;2.83;0.95;;;;;;;18.65;69.72;100096.88;5035593;28;20053;-36
2022/08/17 13:59:09;;;;;;;2.90;0.52;;;;;;;18.70;69.58;100084.44;5044305;28;20053;-36
2022/08/17 14:04:17;;;;;;;2.22;1.45;;;;;;;18.77;69.07;100085.06;5048390;28;20411;-36
2022/08/17 14:09:30;;;;;;;4.55;1.88;;;;;;;18.91;68.61;100076.69;5034461;27;20406;-37
2022/08/17 14:12:05;;;;;;;5.07;1.80;;;;;;;18.95;69.04;100083.53;5010569;28;20064;-38
2022/08/17 14:14:32;;;;;;;3.40;0.90;;;;;;;18.98;68.65;100077.34;5014746;28;20870;-36
2022/08/17 14:16:58;;;;;;;2.67;1.48;;;;;;;18.99;69.05;100074.63;5015030;28;20049;-35
2022/08/17 14:19:25;;;;;;;4.82;1.60;;;;;;;18.99;68.01;100076.41;5011990;28;20068;-39
2022/08/17 14:21:55;;;;;;;2.55;1.13;;;;;;;18.97;67.99;100070.34;5012125;28;20068;-38
2022/08/17 14:24:28;;;;;;;4.35;1.48;;;;;;;18.95;68.12;100073.03;5012740;28;20061;-37
2022/08/17 14:26:56;;;;;;;2.35;1.35;;;;;;;18.93;68.40;100072.25;5010168;28;21309;-38
2022/08/17 14:29:26;;;;;;;2.40;1.63;;;;;;;18.94;68.06;100076.56;5008475;28;20108;-37
2022/08/17 14:31:55;;;;;;;5.50;1.42;;;;;;;18.93;67.59;100074.88;5010862;28;20061;-38
2022/08/17 14:34:23;;;;;;;3.42;1.00;;;;;;;18.86;67.46;100076.00;5011565;28;20049;-37
2022/08/17 14:36:50;;;;;;;3.15;1.50;;;;;;;18.78;68.12;100075.44;5000285;28;20556;-38
2022/08/17 14:39:19;;;;;;;3.47;1.23;;;;;;;18.84;67.86;100078.69;5008832;28;20057;-36
2022/08/17 14:41:45;;;;;;;4.88;1.52;;;;;;;18.84;67.87;100072.56;5006286;28;20060;-37
2022/08/17 14:44:14;;;;;;;4.00;1.30;;;;;;;18.80;68.14;100074.47;5011460;28;20091;-37
2022/08/17 14:46:43;;;;;;;3.13;1.75;;;;;;;18.83;68.26;100073.50;5011176;28;20054;-36
2022/08/17 14:49:11;;;;;;;4.45;1.30;;;;;;;18.77;68.24;100068.50;5013482;28;20068;-38
2022/08/17 14:51:40;;;;;;;2.33;0.93;;;;;;;18.80;68.20;100063.09;5010879;28;21058;-36
2022/08/17 14:54:10;;;;;;;4.75;1.63;;;;;;;18.79;67.94;100066.66;5011582;28;20045;-36
2022/08/17 14:56:57;;;;;;;5.50;1.83;;;;;;;18.81;68.20;100063.06;5009802;28;20049;-36
2022/08/17 14:59:44;;;;;;;5.75;1.67;;;;;;;18.83;68.00;100074.34;5016221;28;20196;-40
2022/08/17 15:02:12;;;;;;;1.92;1.30;;;;;;;18.88;67.98;100076.81;5015385;28;20054;-36
2022/08/17 15:04:38;;;;;;;3.60;2.13;;;;;;;18.89;68.43;100078.53;5015086;28;20054;-38
2022/08/17 15:07:11;;;;;;;3.95;1.92;;;;;;;18.89;67.67;100073.28;5017608;28;20793;-36
2022/08/17 15:09:37;;;;;;;2.40;1.60;;;;;;;18.91;68.17;100081.09;5015238;28;20089;-37
2022/08/17 15:12:05;;;;;;;3.50;1.25;;;;;;;18.93;67.95;100074.88;5017820;28;20064;-39
2022/08/17 15:14:34;;;;;;;3.47;1.25;;;;;;;18.93;67.20;100074.88;5019890;28;20481;-37
2022/08/17 15:17:02;;;;;;;4.13;1.73;;;;;;;18.92;67.52;100086.28;5018956;28;20050;-37
2022/08/17 15:19:29;;;;;;;2.47;1.45;;;;;;;18.90;67.02;100080.22;5011514;28;20088;-37
2022/08/17 15:21:56;;;;;;;2.30;1.77;;;;;;;18.87;67.11;100085.59;5004395;28;20060;-39
2022/08/17 15:24:22;;;;;;;4.60;0.95;;;;;;;18.87;67.25;100090.84;5004373;28;20677;-38
2022/08/17 15:26:50;;;;;;;3.75;1.58;;;;;;;18.82;67.66;100095.41;5007891;28;20053;-37
2022/08/17 15:29:16;;;;;;;2.67;1.48;;;;;;;18.83;67.20;100099.72;5006963;28;20054;-37
2022/08/17 15:31:43;;;;;;;2.90;1.58;;;;;;;18.82;66.87;100104.13;5005323;28;20113;-38
2022/08/17 15:34:10;;;;;;;3.33;2.15;;;;;;;18.85;67.37;100108.41;5003378;28;20061;-37
2022/08/17 15:36:37;;;;;;;2.80;1.60;;;;;;;18.87;67.36;100119.69;5002665;28;20060;-38
2022/08/17 15:39:14;;;;;;;3.70;1.73;;;;;;;18.80;67.94;100115.56;5002620;28;20100;-37
2022/08/17 15:41:46;;;;;;;4.20;2.15;;;;;;;18.83;67.72;100110.22;5005613;28;20133;-37
2022/08/17 15:44:23;;;;;;;3.28;1.75;;;;;;;18.83;67.55;100115.47;5009525;28;20056;-36
2022/08/17 15:47:00;;;;;;;4.68;2.45;;;;;;;18.77;67.22;100120.97;5009296;28;20061;-38
2022/08/17 15:49:27;;;;;;;5.75;2.15;;;;;;;18.68;67.42;100117.72;5007030;28;20050;-38
2022/08/17 15:51:54;;;;;;;3.20;1.65;;;;;;;18.70;67.68;100118.53;5004282;28;20057;-36
2022/08/17 15:54:22;;;;;;;2.90;2.58;;;;;;;18.73;67.67;100110.56;5006043;28;20116;-38
2022/08/17 15:56:49;;;;;;;6.38;2.28;;;;;;;18.72;67.47;100115.88;5006960;28;20045;-36
2022/08/17 15:59:16;;;;;;;3.38;1.90;;;;;;;18.70;67.60;100115.91;5005308;28;20162;-38
2022/08/17 16:01:43;;;;;;;5.55;2.22;;;;;;;18.68;67.88;100111.66;5005338;28;20147;-40
2022/08/17 16:04:29;;;;;;;5.68;1.95;;;;;;;18.70;67.89;100112.44;5006245;28;20092;-38
2022/08/17 16:06:58;;;;;;;3.83;1.48;;;;;;;18.68;67.68;100112.47;5001576;28;20152;-36
2022/08/17 16:09:26;;;;;;;3.42;2.97;;;;;;;18.68;67.76;100109.84;4988639;28;20061;-38